Flight Track Log - Related Links

Times and Time Zones

All times are in EDT time to prevent confusion due to time zone crossing. See the AWE997 flight status page for this flight to view local times or setup timezone preferences in your user account.

Time Position Orientation Groundspeed Altitude Reporting Facility
EDT Latitude Longitude Course Direction KTS MPH feet Rate Location/Type
Sat 10:47:51 AM 41.9333 -87.9167 90° East 172 198 2,500  Level Chicago TRACON
Sat 10:48:39 AM 41.9167 -87.8667 114° Southeast 225 259 3,700 1,079 Climbing Chicago TRACON
Sat 10:50:00 AM 41.9551 -87.4221 97° East  Level FlightAware Approximate
Sat 10:50:10 AM 41.9478 -87.7294 73° East 252 290 5,000  Level Chicago Center
Sat 10:51:00 AM 41.9427 -87.2634 95° East  Level FlightAware Approximate
Sat 10:51:11 AM 41.9811 -87.6367 64° Northeast 277 319 5,900  Level Chicago Center
Sat 10:52:00 AM 41.9333 -87.1045 90° East  Level FlightAware Approximate
Sat 10:52:13 AM 42.0294 -87.5539 52° Northeast 284 327 9,000  Level Chicago Center
Sat 10:53:00 AM 41.9667 -86.9454 90° East  Level FlightAware Approximate
Sat 10:53:15 AM 42.0258 -87.4497 93° East 282 325 11,600  Level Chicago Center
Sat 10:54:17 AM 42.0069 -87.3300 102° East 327 376 12,600 1,854 Climbing Chicago Center
Sat 10:55:18 AM 41.9994 -87.1628 93° East 372 428 15,400 2,439 Climbing Chicago Center
Sat 10:56:20 AM 41.9939 -87.0197 93° East 382 440 17,600 1,790 Climbing Chicago Center
Sat 10:57:22 AM 41.9861 -86.8708 94° East 397 457 19,100 1,742 Climbing Chicago Center
Sat 10:58:24 AM 41.9800 -86.7200 93° East 405 466 21,200 1,805 Climbing Chicago Center
Sat 10:59:25 AM 41.9717 -86.5503 94° East 415 478 22,800 1,512 Climbing Chicago Center
Sat 11:00:27 AM 41.9650 -86.3892 93° East 430 495 24,300 1,355 Climbing Chicago Center
Sat 11:01:29 AM 41.9561 -86.2258 94° East 437 503 25,600 1,258 Climbing Chicago Center
Sat 11:02:31 AM 41.9406 -86.0597 97° East 447 514 26,900 1,171 Climbing Chicago Center
Sat 11:03:32 AM 41.9247 -85.8897 97° East 456 525 28,000 1,024 Climbing Chicago Center
Sat 11:04:34 AM 41.9094 -85.7169 97° East 463 533 29,000 919 Climbing Chicago Center
Sat 11:05:36 AM 41.8928 -85.5394 97° East 473 544 29,900 732 Climbing Chicago Center
Sat 11:06:37 AM 41.8739 -85.3583 98° East 482 555 30,500 732 Climbing Chicago Center
Sat 11:07:39 AM 41.8561 -85.1758 97° East 487 560 31,400 1,161 Climbing Chicago Center
Sat 11:08:41 AM 41.8339 -84.9569 98° East 490 564 32,900 1,073 Climbing Chicago Center
Sat 11:09:42 AM 41.8156 -84.7753 98° East 490 564 33,600 732 Climbing Chicago Center
Sat 11:10:44 AM 41.7953 -84.5936 98° East 492 566 34,400 732 Climbing Chicago Center
Sat 11:11:45 AM 41.7775 -84.3981 97° East 484 557 35,100 744 Climbing Cleveland Center
Sat 11:12:45 AM 41.7753 -84.2142 91° East 489 563 35,900 750 Climbing Cleveland Center
Sat 11:13:45 AM 41.7664 -84.0300 94° East 489 563 36,600 550 Climbing Cleveland Center
Sat 11:14:45 AM 41.7281 -83.8469 106° East 494 568 37,000 200 Climbing Cleveland Center
Sat 11:15:45 AM 41.6850 -83.6667 108° East 500 575 37,000  Level Cleveland Center
Sat 11:16:45 AM 41.6439 -83.4869 107° East 500 575 37,000  Level Cleveland Center
Sat 11:17:45 AM 41.6022 -83.3072 107° East 505 581 37,000  Level Cleveland Center
Sat 11:18:45 AM 41.5586 -83.1222 107° East 505 581 37,000  Level Cleveland Center
Sat 11:19:45 AM 41.5167 -82.9458 108° East 510 587 37,000  Level Cleveland Center
Sat 11:20:45 AM 41.4781 -82.7839 108° East 510 587 37,000  Level Cleveland Center
Sat 11:21:45 AM 41.4336 -82.5994 108° East 510 587 37,000  Level Cleveland Center
Sat 11:22:45 AM 41.3906 -82.4236 108° East 510 587 37,000  Level Cleveland Center
Sat 11:23:45 AM 41.3456 -82.2397 108° East 510 587 37,000  Level Cleveland Center
Sat 11:24:45 AM 41.3042 -82.0619 107° East 505 581 37,000  Level Cleveland Center
Sat 11:25:45 AM 41.2606 -81.8842 108° East 505 581 37,000  Level Cleveland Center
Sat 11:26:45 AM 41.2164 -81.7039 108° East 505 581 37,000  Level Cleveland Center
Sat 11:27:45 AM 41.1703 -81.5264 109° East 505 581 37,000  Level Cleveland Center
Sat 11:28:45 AM 41.1214 -81.3439 110° East 511 588 37,000  Level Cleveland Center
Sat 11:29:45 AM 41.0747 -81.1669 109° East 511 588 37,000  Level Cleveland Center
Sat 11:30:45 AM 41.0317 -80.9878 108° East 511 588 37,000  Level Cleveland Center
Sat 11:31:45 AM 40.9842 -80.8086 109° East 511 588 37,000  Level Cleveland Center
Sat 11:32:45 AM 40.9386 -80.6297 109° East 511 588 37,000  Level Cleveland Center
Sat 11:33:45 AM 40.8906 -80.4514 110° East 511 588 37,000  Level Cleveland Center
Sat 11:34:45 AM 40.8006 -80.2950 127° Southeast 493 567 37,000  Level Cleveland Center
Sat 11:35:45 AM 40.6961 -80.1942 144° Southeast 493 567 37,000  Level Cleveland Center
Sat 11:36:45 AM 40.5853 -80.0828 143° Southeast 498 573 37,000  Level Cleveland Center
Sat 11:37:45 AM 40.4739 -79.9389 135° Southeast 509 586 37,000 50 Level Cleveland Center
Sat 11:38:45 AM 40.4394 -79.7564 104° East 480 552 37,100  Climbing Cleveland Center
Sat 11:39:45 AM 40.4339 -79.5711 92° East 485 558 37,000 -50 Descending Cleveland Center
Sat 11:40:45 AM 40.4258 -79.3858 93° East 495 570 37,000  Level Cleveland Center
Sat 11:41:45 AM 40.4178 -79.2250 94° East 495 570 37,000 -350 Level Cleveland Center
Sat 11:42:45 AM 40.4092 -79.0425 93° East 500 575 36,300 -800 Descending Cleveland Center
Sat 11:43:45 AM 40.4022 -78.8628 93° East 500 575 35,400 -900 Descending Cleveland Center
Sat 11:44:45 AM 40.3931 -78.6803 94° East 500 575 34,500 -950 Descending Cleveland Center
Sat 11:45:45 AM 40.3836 -78.4978 94° East 500 575 33,500 -1,750 Descending Cleveland Center
Sat 11:46:45 AM 40.3867 -78.3178 89° East 494 568 31,000 -3,165 Descending Cleveland Center
Sat 11:47:16 AM 40.3886 -78.2300 88° East 498 573 28,700 -3,783 Descending New York Center
Sat 11:48:17 AM 40.3892 -78.0556 90° East 493 567 25,200 -1,835 Descending New York Center
Sat 11:49:17 AM 40.3783 -77.8908 95° East 478 550 25,000 -99 Descending New York Center
Sat 11:50:18 AM 40.3633 -77.7231 97° East 466 536 25,000 -942 Level New York Center
Sat 11:51:18 AM 40.3414 -77.5600 100° East 466 536 23,100 -2,136 Descending New York Center
Sat 11:52:16 AM 40.3211 -77.4031 100° East 447 514 20,800 -2,441 Descending New York Center
Sat 11:53:16 AM 40.2981 -77.2536 101° East 417 480 18,300 -1,388 Descending New York Center
Sat 11:54:17 AM 40.2775 -77.0967 100° East 405 466 18,000 -298 Descending New York Center
Sat 11:55:17 AM 40.2592 -76.9697 101° East 395 455 17,700 -1,388 Descending New York Center
Sat 11:56:18 AM 40.2394 -76.8294 100° East 395 455 15,200 -2,319 Descending New York Center
Sat 11:57:16 AM 40.2192 -76.6917 101° East 390 449 13,100 -2,067 Descending New York Center
Sat 11:58:17 AM 40.2028 -76.5625 99° East 379 436 11,100 -1,091 Descending New York Center
Sat 11:59:17 AM 40.1819 -76.4331 102° East 369 425 10,900 -100 Descending New York Center
Sat 12:00:17 PM 40.1594 -76.2925 102° East 369 425 10,900  Level New York Center
Sat 12:01:18 PM 40.1461 -76.1719 98° East 362 417 10,900  Level New York Center
Sat 12:02:16 PM 40.1292 -76.0431 100° East 362 417 10,900 -458 Level New York Center
Sat 12:03:16 PM 40.1092 -75.9275 103° East 344 396 10,000 -1,041 Descending New York Center
Sat 12:04:17 PM 40.0517 -75.8583 137° Southeast 279 321 8,800 -1,388 Descending New York Center
Sat 12:05:17 PM 39.9794 -75.7961 147° Southeast 279 321 7,200 -1,339 Descending New York Center
Sat 12:06:18 PM 39.9300 -75.7303 134° Southeast 279 321 6,100 -756 Descending New York Center
Sat 12:07:16 PM 39.8728 -75.6531 134° Southeast 279 321 5,700 -1,008 Descending New York Center
Sat 12:08:17 PM 39.8256 -75.5875 133° Southeast 274 315 4,100 -1,209 Descending New York Center
Sat 12:09:30 PM 39.8167 -75.5000 98° East 203 234 3,000 -904 Descending Philadelphia TRACON

Login

Don't have an account? Register now (free) for customized features, flight alerts, and more!